Time;durP1;ratioP1;P1;durP2;ratioP2;P2;SDS_P1;SDS_P2;PMS_P1;PMS_P2;Temp;Humidity;BMP_temperature;BMP_pressure;BME280_temperature;BME280_humidity;BME280_pressure;Samples;Min_cycle;Max_cycle;Signal;HPM_P1;HPM_P2
2022/06/05 00:01:10;;;;;;;4.40;4.00;;;23.30;99.90;;;;;;5026416;28;20522;-81
2022/06/05 00:03:49;;;;;;;5.10;4.13;;;23.30;99.90;;;;;;5016306;28;20466;-80
2022/06/05 00:06:24;;;;;;;4.80;4.40;;;23.30;99.90;;;;;;5023684;28;20537;-80
2022/06/05 00:09:02;;;;;;;5.20;4.77;;;23.20;99.90;;;;;;5027551;28;20462;-80
2022/06/05 00:11:43;;;;;;;6.70;5.30;;;23.20;99.90;;;;;;5018422;28;20477;-79
2022/06/05 00:14:12;;;;;;;4.77;4.33;;;23.20;99.90;;;;;;5019187;28;20458;-81
2022/06/05 00:16:40;;;;;;;4.43;4.03;;;23.20;99.90;;;;;;5016488;28;21009;-80
2022/06/05 00:19:09;;;;;;;5.00;4.60;;;23.20;99.90;;;;;;5019795;28;20483;-81
2022/06/05 00:21:37;;;;;;;4.23;3.93;;;23.20;99.90;;;;;;5021737;28;20913;-80
2022/06/05 00:24:06;;;;;;;4.90;4.50;;;23.20;99.90;;;;;;5016579;28;21129;-80
2022/06/05 00:26:46;;;;;;;4.40;4.10;;;23.20;99.90;;;;;;5024572;28;20472;-80
2022/06/05 00:29:28;;;;;;;7.90;5.73;;;23.20;99.90;;;;;;5019826;28;20464;-80
2022/06/05 00:32:07;;;;;;;4.90;4.50;;;23.10;99.90;;;;;;5028305;28;20484;-80
2022/06/05 00:34:36;;;;;;;5.20;4.70;;;23.10;99.90;;;;;;5023063;28;20478;-80
2022/06/05 00:37:15;;;;;;;6.23;5.60;;;23.10;99.90;;;;;;5025784;28;20987;-80
2022/06/05 00:39:52;;;;;;;4.80;4.50;;;23.10;99.90;;;;;;5022288;28;20479;-80
2022/06/05 00:42:24;;;;;;;5.20;4.80;;;23.10;99.90;;;;;;5018734;28;20481;-81
2022/06/05 00:44:56;;;;;;;6.10;4.73;;;23.20;99.90;;;;;;5018201;28;20450;-80
2022/06/05 00:47:34;;;;;;;5.03;4.73;;;23.10;99.90;;;;;;5021330;28;20459;-79
2022/06/05 00:50:08;;;;;;;4.97;3.90;;;23.10;99.90;;;;;;5024361;28;20453;-79
2022/06/05 00:52:41;;;;;;;4.30;4.00;;;23.10;99.90;;;;;;5015929;28;20487;-79
2022/06/05 00:55:10;;;;;;;5.17;4.67;;;23.10;99.90;;;;;;5016049;28;20508;-80
2022/06/05 00:57:40;;;;;;;4.80;4.40;;;23.10;99.90;;;;;;5023415;28;20471;-80
2022/06/05 01:00:14;;;;;;;4.67;4.37;;;23.10;99.90;;;;;;5014335;28;20495;-80
2022/06/05 01:02:45;;;;;;;5.87;5.33;;;23.10;99.90;;;;;;5027154;28;20478;-81
2022/06/05 01:05:15;;;;;;;5.40;4.90;;;23.00;99.90;;;;;;5019733;28;20547;-80
2022/06/05 01:07:43;;;;;;;5.40;4.80;;;23.00;99.90;;;;;;5020759;28;21130;-80
2022/06/05 01:10:12;;;;;;;4.97;4.63;;;23.00;99.90;;;;;;5022420;28;20459;-79
2022/06/05 01:12:50;;;;;;;5.13;4.73;;;23.00;99.90;;;;;;5020295;28;20472;-79
2022/06/05 01:15:28;;;;;;;5.30;4.80;;;23.10;99.90;;;;;;5021639;28;20452;-80
2022/06/05 01:18:03;;;;;;;5.23;4.83;;;23.10;99.90;;;;;;5022911;28;20445;-80
2022/06/05 01:20:41;;;;;;;5.23;4.73;;;23.00;99.90;;;;;;5023759;28;20479;-80
2022/06/05 01:23:41;;;;;;;5.30;4.90;;;23.00;99.90;;;;;;5022163;28;20513;-80
2022/06/05 01:26:23;;;;;;;5.80;4.60;;;23.00;99.90;;;;;;5020726;28;20468;-79
2022/06/05 01:28:57;;;;;;;4.70;4.40;;;22.90;99.90;;;;;;5021707;28;21044;-80
2022/06/05 01:31:31;;;;;;;5.03;4.63;;;23.00;99.90;;;;;;5016900;28;20480;-79
2022/06/05 01:34:13;;;;;;;5.17;4.77;;;22.90;99.90;;;;;;5020998;28;20552;-79
2022/06/05 01:36:46;;;;;;;5.10;4.70;;;22.90;99.90;;;;;;5018988;28;20599;-80
2022/06/05 01:39:20;;;;;;;6.43;4.43;;;22.90;99.90;;;;;;5018660;28;20491;-80
2022/06/05 01:41:53;;;;;;;4.80;4.40;;;22.90;99.90;;;;;;5022700;28;21046;-80
2022/06/05 01:44:36;;;;;;;5.80;4.70;;;22.90;99.90;;;;;;5013970;28;20456;-80
2022/06/05 01:47:10;;;;;;;5.23;4.70;;;22.90;99.90;;;;;;5022625;28;21147;-81
2022/06/05 01:49:44;;;;;;;4.70;4.30;;;22.90;99.90;;;;;;5017600;28;20450;-80
2022/06/05 01:52:19;;;;;;;5.00;4.60;;;22.80;99.90;;;;;;5023646;28;20475;-80
2022/06/05 01:54:54;;;;;;;5.10;4.73;;;22.80;99.90;;;;;;5017786;28;20563;-80
2022/06/05 01:57:26;;;;;;;5.27;4.87;;;22.80;99.90;;;;;;5020381;28;20451;-80
2022/06/05 01:59:58;;;;;;;5.50;5.10;;;22.80;99.90;;;;;;5019929;28;20534;-80
2022/06/05 02:02:29;;;;;;;5.07;4.77;;;22.80;1.00;;;;;;5023452;28;21038;-80
2022/06/05 02:05:03;;;;;;;6.27;5.70;;;22.70;1.00;;;;;;5017133;28;21293;-80
2022/06/05 02:07:37;;;;;;;5.57;5.17;;;22.70;1.00;;;;;;5020687;28;20479;-80
2022/06/05 02:10:10;;;;;;;5.20;4.80;;;22.80;1.00;;;;;;5022147;28;20451;-80
2022/06/05 02:12:40;;;;;;;5.27;4.87;;;22.80;1.00;;;;;;5019926;28;20487;-80
2022/06/05 02:15:10;;;;;;;6.23;4.80;;;22.70;1.00;;;;;;5014852;28;20978;-79
2022/06/05 02:17:39;;;;;;;4.83;4.43;;;22.70;1.00;;;;;;5022308;28;20464;-78
2022/06/05 02:20:09;;;;;;;5.23;4.67;;;22.70;1.00;;;;;;5020958;28;20490;-79
2022/06/05 02:22:40;;;;;;;5.50;5.00;;;22.70;1.00;;;;;;5019146;28;20488;-80
2022/06/05 02:25:10;;;;;;;4.47;4.07;;;22.70;1.00;;;;;;5024784;28;20441;-79
2022/06/05 02:27:39;;;;;;;5.60;5.20;;;22.60;1.00;;;;;;5020699;28;20464;-80
2022/06/05 02:30:10;;;;;;;5.40;4.83;;;22.50;1.00;;;;;;5022525;28;20456;-80
2022/06/05 02:32:49;;;;;;;5.33;5.03;;;22.40;1.00;;;;;;5018486;28;20469;-79
2022/06/05 02:35:26;;;;;;;4.87;4.50;;;22.40;1.00;;;;;;5016692;28;20452;-81
2022/06/05 02:38:10;;;;;;;5.93;5.43;;;22.40;1.00;;;;;;5021846;28;21003;-79
2022/06/05 02:40:46;;;;;;;5.53;5.13;;;22.30;1.00;;;;;;5021750;28;20529;-81
2022/06/05 02:43:22;;;;;;;5.30;4.87;;;22.30;1.00;;;;;;5016877;28;20470;-80
2022/06/05 02:45:58;;;;;;;5.93;5.43;;;22.30;1.00;;;;;;5018855;28;20462;-80
2022/06/05 02:48:30;;;;;;;5.03;4.53;;;22.30;1.00;;;;;;5023180;28;20538;-81
2022/06/05 02:51:06;;;;;;;4.97;4.57;;;22.40;1.00;;;;;;5023981;28;20973;-80
2022/06/05 02:53:46;;;;;;;6.77;5.47;;;22.40;1.00;;;;;;5016136;28;20459;-80
2022/06/05 02:56:15;;;;;;;5.60;5.00;;;22.40;1.00;;;;;;5021365;28;20460;-80
2022/06/05 02:58:46;;;;;;;7.20;5.80;;;22.40;1.00;;;;;;5013969;28;20513;-80
2022/06/05 03:04:00;;;;;;;5.83;5.23;;;22.40;1.00;;;;;;5020295;28;20451;-80
2022/06/05 03:06:30;;;;;;;5.23;4.80;;;22.40;1.00;;;;;;5029401;28;20524;-81
2022/06/05 03:08:58;;;;;;;5.60;5.10;;;22.40;1.00;;;;;;5025365;28;20464;-79
2022/06/05 03:11:27;;;;;;;5.23;4.73;;;22.50;1.00;;;;;;5029992;28;20490;-80
2022/06/05 03:13:57;;;;;;;5.50;5.00;;;22.40;1.00;;;;;;5024454;28;20464;-80
2022/06/05 03:16:25;;;;;;;5.77;5.30;;;22.40;1.00;;;;;;5023887;28;20486;-80
2022/06/05 03:18:53;;;;;;;5.20;4.80;;;22.40;1.00;;;;;;5024700;28;20452;-80
2022/06/05 03:21:22;;;;;;;5.50;5.10;;;22.40;1.00;;;;;;5023671;28;20472;-79
2022/06/05 03:23:50;;;;;;;5.37;4.97;;;22.40;1.00;;;;;;5019657;28;20706;-81
2022/06/05 03:26:18;;;;;;;5.77;5.27;;;22.40;1.00;;;;;;5023389;28;20534;-80
2022/06/05 03:28:46;;;;;;;6.17;5.60;;;22.40;1.00;;;;;;5017275;28;20496;-80
2022/06/05 03:31:16;;;;;;;4.60;4.17;;;22.40;1.00;;;;;;5022713;28;20503;-80
2022/06/05 03:33:45;;;;;;;6.20;5.70;;;22.40;1.00;;;;;;5020518;28;20462;-79
2022/06/05 03:36:17;;;;;;;5.63;5.23;;;22.40;1.00;;;;;;5027384;28;20857;-81
2022/06/05 03:38:45;;;;;;;5.57;5.07;;;22.40;1.00;;;;;;5022632;28;20981;-80
2022/06/05 03:41:15;;;;;;;6.10;5.60;;;22.40;1.00;;;;;;5025953;28;20464;-81
2022/06/05 03:43:44;;;;;;;6.10;5.57;;;22.40;1.00;;;;;;5018468;28;21004;-80
2022/06/05 03:46:16;;;;;;;5.50;5.10;;;22.40;1.00;;;;;;5018532;28;20519;-80
2022/06/05 03:48:45;;;;;;;5.30;4.90;;;22.50;1.00;;;;;;5021836;28;20452;-80
2022/06/05 03:51:15;;;;;;;6.10;5.50;;;22.50;1.00;;;;;;5020373;28;20440;-80
2022/06/05 03:53:44;;;;;;;5.50;5.10;;;22.50;1.00;;;;;;5023985;28;20845;-79
2022/06/05 03:56:15;;;;;;;5.47;5.07;;;22.50;1.00;;;;;;5025016;28;20494;-79
2022/06/05 03:58:44;;;;;;;5.27;4.83;;;22.60;1.00;;;;;;5022878;28;20460;-79
2022/06/05 04:01:14;;;;;;;8.17;5.30;;;22.60;1.00;;;;;;5020919;28;20480;-80
2022/06/05 04:03:45;;;;;;;4.53;4.23;;;22.60;1.00;;;;;;5017898;28;20476;-79
2022/06/05 04:06:23;;;;;;;4.47;4.17;;;22.60;1.00;;;;;;5018945;28;21065;-79
2022/06/05 04:08:51;;;;;;;5.17;4.77;;;22.60;1.00;;;;;;5026385;28;20976;-80
2022/06/05 04:11:20;;;;;;;7.03;6.00;;;22.50;1.00;;;;;;5029602;28;20481;-80
2022/06/05 04:13:49;;;;;;;5.80;5.20;;;22.60;1.00;;;;;;5022211;28;21551;-80
2022/06/05 04:16:20;;;;;;;5.50;5.10;;;22.50;1.00;;;;;;5014062;28;20463;-80
2022/06/05 04:18:51;;;;;;;4.70;4.30;;;22.50;1.00;;;;;;5024595;28;20483;-80
2022/06/05 04:21:22;;;;;;;5.20;4.50;;;22.50;1.00;;;;;;5025679;28;20489;-80
2022/06/05 04:23:51;;;;;;;5.63;5.10;;;22.40;1.00;;;;;;5022512;28;20467;-79
2022/06/05 04:26:21;;;;;;;5.43;4.97;;;22.40;1.00;;;;;;5020639;28;20465;-79
2022/06/05 04:28:52;;;;;;;5.53;5.13;;;22.40;1.00;;;;;;5018871;28;21050;-80
2022/06/05 04:31:22;;;;;;;5.87;5.40;;;22.40;1.00;;;;;;5027173;28;20503;-79
2022/06/05 04:33:54;;;;;;;4.67;4.30;;;22.50;1.00;;;;;;5019791;28;20460;-80
2022/06/05 04:36:23;;;;;;;4.90;4.60;;;22.50;1.00;;;;;;5022114;28;20451;-79
2022/06/05 04:38:52;;;;;;;5.30;4.90;;;22.50;1.00;;;;;;5023244;28;20460;-79
2022/06/05 04:41:22;;;;;;;6.40;5.80;;;22.50;1.00;;;;;;5027239;28;20476;-80
2022/06/05 04:43:50;;;;;;;4.87;4.50;;;22.50;1.00;;;;;;5026375;28;20453;-79
2022/06/05 04:46:20;;;;;;;6.60;6.00;;;22.50;1.00;;;;;;5020848;28;20460;-79
2022/06/05 04:48:49;;;;;;;6.40;5.90;;;22.40;1.00;;;;;;5017050;28;20465;-78
2022/06/05 04:51:19;;;;;;;6.23;4.73;;;22.50;1.00;;;;;;5020880;28;20510;-79
2022/06/05 04:53:49;;;;;;;6.40;5.90;;;22.40;13.10;;;;;;5020618;28;20470;-79
2022/06/05 04:56:20;;;;;;;6.17;5.50;;;22.40;83.90;;;;;;5024303;28;20476;-78
2022/06/05 04:58:48;;;;;;;5.97;5.50;;;22.40;99.90;;;;;;5020556;28;20447;-79
2022/06/05 05:01:19;;;;;;;5.83;5.33;;;22.40;99.90;;;;;;5023205;28;20571;-79
2022/06/05 05:03:48;;;;;;;6.83;6.13;;;22.40;99.90;;;;;;5016317;28;20470;-78
2022/06/05 05:06:18;;;;;;;6.20;5.67;;;22.40;99.90;;;;;;5017737;28;20452;-78
2022/06/05 05:08:46;;;;;;;6.93;6.27;;;22.40;99.90;;;;;;5016718;28;20461;-79
2022/06/05 05:11:14;;;;;;;8.10;7.00;;;22.50;99.90;;;;;;5023717;28;20506;-78
2022/06/05 05:13:42;;;;;;;6.77;6.07;;;22.30;99.90;;;;;;5017905;28;20463;-79
2022/06/05 05:16:11;;;;;;;6.67;6.07;;;22.20;1.00;;;;;;5017469;28;20483;-79
2022/06/05 05:18:40;;;;;;;10.50;6.70;;;22.20;1.00;;;;;;5019205;28;20544;-80
2022/06/05 05:21:11;;;;;;;8.13;5.97;;;22.20;1.00;;;;;;5025415;28;20479;-78
2022/06/05 05:23:40;;;;;;;9.47;6.70;;;22.30;1.00;;;;;;5021713;28;20473;-79
2022/06/05 05:26:12;;;;;;;7.67;6.97;;;22.20;1.00;;;;;;5020376;28;20454;-79
2022/06/05 05:28:41;;;;;;;8.00;6.77;;;22.20;1.00;;;;;;5018435;28;20458;-79
2022/06/05 05:31:11;;;;;;;7.60;6.90;;;22.20;1.00;;;;;;5019299;28;20489;-79
2022/06/05 05:33:40;;;;;;;8.97;6.90;;;22.00;96.80;;;;;;5023449;28;20457;-79
2022/06/05 05:36:10;;;;;;;8.03;7.23;;;21.60;1.00;;;;;;5020729;28;20540;-82
2022/06/05 05:42:04;;;;;;;7.47;6.67;;;21.40;99.90;;;;;;5024479;28;20469;-80
2022/06/05 05:44:14;;;;;;;7.10;6.07;;;21.60;99.90;;;;;;5019125;28;20859;-79
2022/06/05 05:46:43;;;;;;;7.80;7.10;;;21.50;99.90;;;;;;5013383;28;21039;-80
2022/06/05 05:49:13;;;;;;;7.20;6.60;;;21.60;1.00;;;;;;5019267;28;20866;-80
2022/06/05 05:51:42;;;;;;;6.40;5.80;;;21.70;1.00;;;;;;5019457;28;20514;-80
2022/06/05 05:54:12;;;;;;;7.43;6.37;;;21.60;1.00;;;;;;5016387;28;20465;-76
2022/06/05 05:56:41;;;;;;;7.20;5.63;;;21.30;99.90;;;;;;5019240;28;20450;-77
2022/06/05 05:59:09;;;;;;;7.20;5.43;;;21.10;99.90;;;;;;5021202;28;20449;-77
2022/06/05 06:01:38;;;;;;;4.73;4.33;;;21.00;1.00;;;;;;5024602;28;20499;-77
2022/06/05 06:04:06;;;;;;;5.20;4.70;;;21.10;85.60;;;;;;5023301;28;20462;-77
2022/06/05 06:06:37;;;;;;;5.20;4.73;;;21.20;1.00;;;;;;5023966;28;20491;-77
2022/06/05 06:09:05;;;;;;;4.83;4.43;;;21.30;1.00;;;;;;5023835;28;20557;-77
2022/06/05 06:11:35;;;;;;;6.27;5.67;;;21.30;99.90;;;;;;5026164;28;20523;-77
2022/06/05 06:14:04;;;;;;;4.70;4.13;;;21.40;1.00;;;;;;5019540;28;20511;-77
2022/06/05 06:16:33;;;;;;;4.13;3.73;;;21.50;99.90;;;;;;5017107;28;20546;-77
2022/06/05 06:19:01;;;;;;;4.07;3.07;;;21.50;1.00;;;;;;5035878;28;20464;-76
2022/06/05 06:21:30;;;;;;;5.07;4.40;;;21.50;1.00;;;;;;5019267;28;20515;-79
2022/06/05 06:24:01;;;;;;;3.43;3.13;;;21.60;99.90;;;;;;5024652;28;20574;-78
2022/06/05 06:26:29;;;;;;;3.90;2.87;;;21.60;99.90;;;;;;5014248;28;20540;-79
2022/06/05 06:28:59;;;;;;;3.00;2.80;;;21.80;99.90;;;;;;5020101;28;20555;-79
2022/06/05 06:31:27;;;;;;;3.07;2.80;;;21.80;71.70;;;;;;5021797;28;20486;-78
2022/06/05 06:33:56;;;;;;;3.73;3.43;;;21.90;42.80;;;;;;5028370;28;20478;-79
2022/06/05 06:36:24;;;;;;;6.03;5.40;;;21.80;46.30;;;;;;5022966;28;20493;-78
2022/06/05 06:39:13;;;;;;;3.87;3.53;;;21.80;73.80;;;;;;5018244;28;20501;-79
2022/06/05 06:41:41;;;;;;;3.43;3.13;;;21.80;99.90;;;;;;5025334;28;20575;-79
2022/06/05 06:44:11;;;;;;;4.97;3.50;;;21.80;98.70;;;;;;5019197;28;20553;-78
2022/06/05 06:46:39;;;;;;;3.70;3.37;;;21.80;99.90;;;;;;5016817;28;20461;-78
2022/06/05 06:49:07;;;;;;;3.93;3.10;;;21.90;1.00;;;;;;5019129;28;20536;-78
2022/06/05 06:51:35;;;;;;;3.97;3.17;;;21.90;1.00;;;;;;5017930;28;20530;-79
2022/06/05 06:54:04;;;;;;;3.50;3.20;;;21.90;48.60;;;;;;5028938;28;20550;-78
2022/06/05 06:56:34;;;;;;;3.47;2.40;;;21.90;1.00;;;;;;5020953;28;20464;-79
2022/06/05 06:59:05;;;;;;;3.53;3.23;;;21.90;9.70;;;;;;5024458;28;20452;-76
2022/06/05 07:01:34;;;;;;;3.10;2.87;;;21.90;59.60;;;;;;5022280;28;20464;-76
2022/06/05 07:04:03;;;;;;;5.00;2.47;;;21.90;1.00;;;;;;5020068;28;20875;-75
2022/06/05 07:06:31;;;;;;;2.40;2.20;;;21.90;1.00;;;;;;5020381;28;20472;-77
2022/06/05 07:08:59;;;;;;;2.43;2.27;;;21.90;1.00;;;;;;5027981;28;20551;-76
2022/06/05 07:11:27;;;;;;;2.60;2.33;;;21.90;1.00;;;;;;5022800;28;20497;-76
2022/06/05 07:13:56;;;;;;;3.47;3.17;;;21.90;1.00;;;;;;5028179;28;20528;-76
2022/06/05 07:16:24;;;;;;;3.77;2.27;;;21.90;1.00;;;;;;5018045;28;20445;-75
2022/06/05 07:18:54;;;;;;;2.33;2.13;;;21.90;1.00;;;;;;5021604;28;20462;-76
2022/06/05 07:21:26;;;;;;;3.73;1.70;;;21.90;99.90;;;;;;5025323;28;21047;-76
2022/06/05 07:23:54;;;;;;;5.00;2.13;;;21.90;99.90;;;;;;5035098;28;22139;-75
2022/06/05 07:26:26;;;;;;;4.50;2.40;;;21.80;1.00;;;;;;5011760;28;20456;-76
2022/06/05 07:28:56;;;;;;;5.17;2.10;;;21.80;99.90;;;;;;5019751;28;20472;-79
2022/06/05 07:31:27;;;;;;;2.17;2.00;;;21.80;99.90;;;;;;5024631;28;20471;-80
2022/06/05 07:33:58;;;;;;;2.20;2.03;;;21.90;99.90;;;;;;5030524;28;20447;-80
2022/06/05 07:36:28;;;;;;;2.20;1.87;;;21.90;99.90;;;;;;5028713;28;20453;-81
2022/06/05 07:38:57;;;;;;;2.27;2.07;;;21.90;99.90;;;;;;5022516;28;20465;-80
2022/06/05 07:41:29;;;;;;;1.80;1.70;;;21.90;99.90;;;;;;5017808;28;20552;-79
2022/06/05 07:43:58;;;;;;;1.60;1.50;;;21.90;99.90;;;;;;5020530;28;20565;-79
2022/06/05 07:46:27;;;;;;;2.40;1.67;;;21.90;99.90;;;;;;5014850;28;20505;-80
2022/06/05 07:48:57;;;;;;;1.80;1.70;;;21.90;99.90;;;;;;5015301;28;21234;-77
2022/06/05 07:54:28;;;;;;;3.43;2.20;;;22.00;99.90;;;;;;5013963;28;20450;-77
2022/06/05 07:56:57;;;;;;;2.57;2.27;;;22.00;1.00;;;;;;5019133;28;20821;-78
2022/06/05 07:59:25;;;;;;;3.80;2.80;;;21.90;1.00;;;;;;5025930;28;20515;-79
2022/06/05 08:01:57;;;;;;;2.80;2.60;;;21.70;18.10;;;;;;5015912;28;21075;-79
2022/06/05 08:04:27;;;;;;;2.90;1.80;;;21.30;1.00;;;;;;5015985;28;21132;-78
2022/06/05 08:06:58;;;;;;;2.37;2.10;;;21.30;15.20;;;;;;5019218;28;20464;-79
2022/06/05 08:09:27;;;;;;;2.33;2.13;;;21.40;99.90;;;;;;5020107;28;20455;-78
2022/06/05 08:11:56;;;;;;;2.60;2.13;;;21.30;1.00;;;;;;5020185;28;20513;-79
2022/06/05 08:14:24;;;;;;;2.17;2.07;;;21.40;1.00;;;;;;5018641;28;20459;-78
2022/06/05 08:16:52;;;;;;;2.23;1.97;;;21.60;99.90;;;;;;5019625;28;20463;-79
2022/06/05 08:19:22;;;;;;;3.23;2.03;;;21.70;78.90;;;;;;5031399;28;21284;-78
2022/06/05 08:21:52;;;;;;;1.80;1.70;;;21.80;99.90;;;;;;5020164;28;20883;-80
2022/06/05 08:24:21;;;;;;;2.03;1.70;;;21.70;99.90;;;;;;5021216;28;20477;-80
2022/06/05 08:26:51;;;;;;;1.80;1.70;;;21.80;99.90;;;;;;5025575;28;20825;-79
2022/06/05 08:29:20;;;;;;;2.23;1.97;;;21.90;99.90;;;;;;5022731;28;20468;-80
2022/06/05 08:31:48;;;;;;;2.07;1.87;;;22.00;99.90;;;;;;5022825;28;20486;-80
2022/06/05 08:34:17;;;;;;;2.87;1.60;;;22.00;1.00;;;;;;5022265;28;20446;-79
2022/06/05 08:36:45;;;;;;;1.77;1.50;;;22.00;1.00;;;;;;5026448;28;20536;-80
2022/06/05 08:42:14;;;;;;;1.60;1.50;;;22.00;17.00;;;;;;5027595;28;20542;-79
2022/06/05 08:44:46;;;;;;;3.07;1.40;;;22.10;99.90;;;;;;5029366;28;21313;-79
2022/06/05 08:47:20;;;;;;;2.50;1.40;;;21.90;1.00;;;;;;5020408;28;20461;-79
2022/06/05 08:49:54;;;;;;;1.67;1.13;;;21.80;1.00;;;;;;5028990;28;20568;-80
2022/06/05 08:52:27;;;;;;;1.50;1.30;;;22.00;99.90;;;;;;5028615;28;20864;-79
2022/06/05 08:55:01;;;;;;;1.43;1.33;;;22.20;59.60;;;;;;5026981;28;20467;-80
2022/06/05 08:57:35;;;;;;;1.60;1.30;;;22.10;99.90;;;;;;5029106;28;20461;-81
2022/06/05 09:00:13;;;;;;;1.40;1.30;;;22.10;99.90;;;;;;5027716;28;20450;-79
2022/06/05 09:02:47;;;;;;;1.60;1.50;;;22.10;1.00;;;;;;5025214;28;20821;-79
2022/06/05 09:05:23;;;;;;;1.97;1.87;;;22.00;99.90;;;;;;5019094;28;20460;-79
2022/06/05 09:07:54;;;;;;;1.70;1.60;;;21.90;99.90;;;;;;5029349;28;20490;-79
2022/06/05 09:10:32;;;;;;;1.77;1.67;;;21.90;1.00;;;;;;5027491;28;20502;-79
2022/06/05 09:13:06;;;;;;;2.30;2.10;;;21.90;1.00;;;;;;5029736;28;20469;-79
2022/06/05 09:15:39;;;;;;;3.90;1.60;;;21.80;1.00;;;;;;5027340;28;20827;-79
2022/06/05 09:18:15;;;;;;;2.90;1.50;;;21.70;1.00;;;;;;5029120;28;20531;-79
2022/06/05 09:20:51;;;;;;;1.57;1.47;;;21.80;99.90;;;;;;5026151;28;20442;-79
2022/06/05 09:23:24;;;;;;;1.60;1.50;;;21.40;1.00;;;;;;5024394;28;20519;-79
2022/06/05 09:26:00;;;;;;;1.57;1.47;;;21.50;1.00;;;;;;5016761;28;20491;-79
2022/06/05 09:28:49;;;;;;;1.80;1.70;;;21.80;1.00;;;;;;5028425;28;20463;-79
2022/06/05 09:31:42;;;;;;;1.50;1.40;;;22.00;1.00;;;;;;5026633;28;20460;-79
2022/06/05 09:34:13;;;;;;;1.87;1.40;;;21.90;99.90;;;;;;5028567;28;20439;-79
2022/06/05 09:36:46;;;;;;;2.20;1.37;;;22.10;41.40;;;;;;5026317;28;20974;-79
2022/06/05 09:39:25;;;;;;;1.83;1.40;;;22.20;1.00;;;;;;5015753;28;20510;-79
2022/06/05 09:42:08;;;;;;;1.63;1.20;;;22.20;99.90;;;;;;5019308;28;20990;-79
2022/06/05 09:44:50;;;;;;;1.37;1.27;;;22.20;1.00;;;;;;5028145;28;20490;-79
2022/06/05 09:47:25;;;;;;;1.30;1.20;;;22.10;99.90;;;;;;5028233;28;20470;-79
2022/06/05 09:49:58;;;;;;;2.23;1.00;;;22.00;97.50;;;;;;5028322;28;20463;-79
2022/06/05 09:52:29;;;;;;;1.53;1.23;;;22.30;1.00;;;;;;5027079;28;20475;-79
2022/06/05 09:55:02;;;;;;;2.03;1.83;;;22.40;4.00;;;;;;5018227;28;20951;-79
2022/06/05 10:00:54;;;;;;;2.53;1.63;;;22.20;1.00;;;;;;5015474;28;20546;-79
2022/06/05 10:03:28;;;;;;;1.53;1.40;;;22.40;1.00;;;;;;5027894;28;20484;-78
2022/06/05 10:06:22;;;;;;;1.93;1.53;;;22.50;1.00;;;;;;5026793;28;20455;-79
2022/06/05 10:08:55;;;;;;;1.30;1.20;;;22.60;1.00;;;;;;5026289;28;20448;-79
2022/06/05 10:11:29;;;;;;;1.50;1.40;;;22.70;1.00;;;;;;5020774;28;20504;-79
2022/06/05 10:14:20;;;;;;;1.70;1.53;;;22.80;1.00;;;;;;5014239;28;20443;-79
2022/06/05 10:16:54;;;;;;;2.00;1.50;;;22.80;1.00;;;;;;5027021;28;20816;-80
2022/06/05 10:19:34;;;;;;;2.60;1.63;;;22.90;1.00;;;;;;5027515;28;20939;-80
2022/06/05 10:22:12;;;;;;;2.10;1.70;;;23.00;99.90;;;;;;5027817;28;20794;-79
2022/06/05 10:24:54;;;;;;;2.10;1.93;;;22.80;52.70;;;;;;5014225;28;20951;-79
2022/06/05 10:27:22;;;;;;;2.00;1.80;;;22.70;99.90;;;;;;5027269;28;20460;-79
2022/06/05 10:29:56;;;;;;;1.70;1.60;;;22.30;1.00;;;;;;5023889;28;20520;-79
2022/06/05 10:32:34;;;;;;;2.30;1.90;;;22.50;79.80;;;;;;5027829;28;20471;-80
2022/06/05 10:35:11;;;;;;;1.97;1.67;;;22.30;1.00;;;;;;5024911;28;21029;-79
2022/06/05 10:37:47;;;;;;;2.47;1.80;;;22.10;99.90;;;;;;5026194;28;20465;-79
2022/06/05 10:40:23;;;;;;;3.63;1.93;;;22.00;99.90;;;;;;5025744;28;20460;-79
2022/06/05 10:42:59;;;;;;;2.00;1.80;;;22.00;99.90;;;;;;5025411;28;20482;-79
2022/06/05 10:45:40;;;;;;;2.00;1.67;;;21.90;99.90;;;;;;5026258;28;20476;-79
2022/06/05 10:48:39;;;;;;;2.33;1.60;;;22.10;1.00;;;;;;5027542;28;20544;-79
2022/06/05 10:51:19;;;;;;;3.03;1.60;;;22.20;74.50;;;;;;5032016;28;20448;-79
2022/06/05 10:53:53;;;;;;;5.30;2.60;;;22.30;99.90;;;;;;5025703;28;20462;-79
2022/06/05 10:56:35;;;;;;;3.70;1.80;;;22.40;1.00;;;;;;5016948;28;20546;-79
2022/06/05 10:59:13;;;;;;;3.53;1.90;;;22.20;1.00;;;;;;5027588;28;20478;-79
2022/06/05 11:02:01;;;;;;;2.40;2.20;;;22.20;99.90;;;;;;5025396;28;20458;-78
2022/06/05 11:04:46;;;;;;;3.00;2.00;;;22.20;1.00;;;;;;5021399;28;20487;-79
2022/06/05 11:07:45;;;;;;;2.40;2.20;;;22.30;1.00;;;;;;5017511;28;20460;-79
2022/06/05 11:13:39;;;;;;;2.30;2.10;;;22.20;1.00;;;;;;5016796;28;20507;-80
2022/06/05 11:16:17;;;;;;;2.17;1.83;;;22.00;99.90;;;;;;5029721;28;20458;-79
2022/06/05 11:18:54;;;;;;;2.40;2.20;;;22.20;99.90;;;;;;5026406;28;20459;-79
2022/06/05 11:21:24;;;;;;;4.17;1.87;;;22.20;99.90;;;;;;5012105;28;20507;-80
2022/06/05 11:23:57;;;;;;;2.53;1.87;;;22.20;99.90;;;;;;5019690;28;20456;-79
2022/06/05 11:26:34;;;;;;;1.90;1.73;;;22.30;99.90;;;;;;5022708;28;20457;-79
2022/06/05 11:29:19;;;;;;;2.20;1.50;;;22.40;97.00;;;;;;5029995;28;20483;-79
2022/06/05 11:31:59;;;;;;;3.07;1.60;;;22.30;1.00;;;;;;5029179;28;21011;-79
2022/06/05 11:34:42;;;;;;;2.03;1.40;;;22.30;1.00;;;;;;5029623;28;20927;-79
2022/06/05 11:37:30;;;;;;;3.90;1.30;;;22.40;99.90;;;;;;5024352;28;20455;-79
2022/06/05 11:40:03;;;;;;;1.97;1.77;;;22.50;1.00;;;;;;5027350;28;21289;-79
2022/06/05 11:42:36;;;;;;;2.70;1.60;;;22.60;99.90;;;;;;5042818;28;20479;-79
2022/06/05 11:45:26;;;;;;;2.37;1.60;;;22.60;99.90;;;;;;5029155;28;20475;-79
2022/06/05 11:48:03;;;;;;;1.40;1.30;;;22.40;1.00;;;;;;5028867;28;20453;-80
2022/06/05 11:50:39;;;;;;;1.67;1.40;;;22.60;99.90;;;;;;5027644;28;20532;-79
2022/06/05 11:53:14;;;;;;;1.90;1.40;;;22.70;99.90;;;;;;5029370;28;20485;-79
2022/06/05 11:55:50;;;;;;;1.53;1.43;;;22.70;1.00;;;;;;5028888;28;20458;-79
2022/06/05 11:58:27;;;;;;;4.03;1.40;;;22.80;1.00;;;;;;5030564;28;20491;-79
2022/06/05 12:00:59;;;;;;;2.23;1.70;;;22.70;1.00;;;;;;5025813;28;20447;-79
2022/06/05 12:03:34;;;;;;;1.80;1.23;;;22.70;1.00;;;;;;5029689;28;20445;-79
2022/06/05 12:06:11;;;;;;;4.57;1.90;;;22.80;99.90;;;;;;5028833;28;20495;-79
2022/06/05 12:08:46;;;;;;;1.90;1.80;;;23.00;99.90;;;;;;5029396;28;20462;-79
2022/06/05 12:11:20;;;;;;;3.13;1.60;;;23.00;99.90;;;;;;5017739;28;20514;-80
2022/06/05 12:14:02;;;;;;;3.30;1.30;;;22.90;99.90;;;;;;5023907;28;20455;-79
2022/06/05 12:16:37;;;;;;;1.63;1.40;;;22.70;99.90;;;;;;5029184;28;20448;-79
2022/06/05 12:19:15;;;;;;;2.83;1.60;;;22.80;99.90;;;;;;5027646;28;20452;-79
2022/06/05 12:21:56;;;;;;;2.20;1.53;;;22.70;99.90;;;;;;5027112;28;20471;-80
2022/06/05 12:24:30;;;;;;;1.50;1.40;;;22.50;1.00;;;;;;5025484;28;20461;-79
2022/06/05 12:27:02;;;;;;;2.57;1.43;;;22.30;99.90;;;;;;5025482;28;20515;-80
2022/06/05 12:29:37;;;;;;;1.60;1.30;;;22.30;99.90;;;;;;5012706;28;20468;-80
2022/06/05 12:32:08;;;;;;;1.73;1.60;;;22.40;1.00;;;;;;5018272;28;20886;-79
2022/06/05 12:34:43;;;;;;;4.40;1.57;;;22.30;99.90;;;;;;5030939;28;20505;-79
2022/06/05 12:37:19;;;;;;;1.33;1.23;;;22.30;1.00;;;;;;5022896;28;20986;-78
2022/06/05 12:39:51;;;;;;;3.33;3.03;;;22.30;1.00;;;;;;5031906;28;20451;-79
2022/06/05 12:42:31;;;;;;;4.00;2.57;;;22.40;1.00;;;;;;5019137;28;20484;-79
2022/06/05 12:45:03;;;;;;;3.17;1.40;;;22.40;1.00;;;;;;5011813;28;20483;-79
2022/06/05 12:47:40;;;;;;;2.70;1.50;;;22.60;1.00;;;;;;5028633;28;20459;-79
2022/06/05 12:50:25;;;;;;;2.63;1.90;;;22.70;99.90;;;;;;5016847;28;20521;-79
2022/06/05 12:53:01;;;;;;;4.30;1.70;;;22.50;1.00;;;;;;5025350;28;20837;-79
2022/06/05 12:55:42;;;;;;;1.30;1.20;;;22.50;1.00;;;;;;5024910;28;20447;-79
2022/06/05 12:58:20;;;;;;;3.10;1.50;;;22.70;99.90;;;;;;5017315;28;20451;-79
2022/06/05 13:00:53;;;;;;;3.13;1.40;;;22.70;99.90;;;;;;5022760;28;20445;-79
2022/06/05 13:03:31;;;;;;;1.57;1.30;;;22.90;99.90;;;;;;5018293;28;20470;-78
2022/06/05 13:06:05;;;;;;;2.83;1.50;;;23.00;99.90;;;;;;5022143;28;20508;-77
2022/06/05 13:08:42;;;;;;;2.43;1.53;;;23.10;99.90;;;;;;5021964;28;20519;-77
2022/06/05 13:11:18;;;;;;;1.37;1.20;;;23.20;95.30;;;;;;5015364;28;20453;-78
2022/06/05 13:13:58;;;;;;;1.37;1.20;;;23.30;48.80;;;;;;5020956;28;20451;-77
2022/06/05 13:16:36;;;;;;;1.60;1.50;;;23.20;39.00;;;;;;5021147;28;20499;-78
2022/06/05 13:19:28;;;;;;;1.80;1.20;;;23.30;99.90;;;;;;5029664;28;20527;-76
2022/06/05 13:22:09;;;;;;;1.67;1.57;;;23.20;1.00;;;;;;5024623;28;20464;-77
2022/06/05 13:24:50;;;;;;;2.13;1.93;;;23.30;1.00;;;;;;5022334;28;20514;-76
2022/06/05 13:27:30;;;;;;;3.13;1.50;;;23.20;96.30;;;;;;5014708;28;22043;-81
2022/06/05 13:30:04;;;;;;;1.43;1.33;;;23.30;99.90;;;;;;5021080;28;21268;-80
2022/06/05 13:32:48;;;;;;;1.77;1.50;;;23.40;94.00;;;;;;5023400;28;20478;-80
2022/06/05 13:35:31;;;;;;;1.77;1.50;;;23.40;99.90;;;;;;5020382;28;20519;-80
2022/06/05 13:38:07;;;;;;;2.97;1.33;;;23.50;99.90;;;;;;5021392;28;20452;-80
2022/06/05 13:40:47;;;;;;;1.70;1.60;;;23.60;99.90;;;;;;5022100;28;20457;-80
2022/06/05 13:43:22;;;;;;;1.70;1.60;;;23.40;99.90;;;;;;5022720;28;20483;-80